Time;durP1;ratioP1;P1;durP2;ratioP2;P2;SDS_P1;SDS_P2;PMS_P1;PMS_P2;Temp;Humidity;BMP_temperature;BMP_pressure;BME280_temperature;BME280_humidity;BME280_pressure;Samples;Min_cycle;Max_cycle;Signal;HPM_P1;HPM_P2
2023/07/17 00:00:15;;;;;;;8.65;4.10;;;;;;;27.52;42.61;99612.03;5051739;28;20096;-77
2023/07/17 00:02:41;;;;;;;7.72;4.20;;;;;;;27.24;43.51;99608.59;5051703;28;20434;-76
2023/07/17 00:05:07;;;;;;;4.70;3.97;;;;;;;27.24;43.61;99611.44;5051442;28;20028;-76
2023/07/17 00:07:33;;;;;;;5.10;4.57;;;;;;;27.45;43.43;99613.00;5051714;28;20024;-76
2023/07/17 00:09:59;;;;;;;5.88;4.07;;;;;;;27.49;43.49;99609.25;5051595;28;20098;-76
2023/07/17 00:12:24;;;;;;;7.22;3.60;;;;;;;27.52;43.50;99614.91;5048561;28;20540;-76
2023/07/17 00:14:49;;;;;;;8.57;4.13;;;;;;;27.59;43.28;99617.59;5034285;28;20047;-76
2023/07/17 00:17:15;;;;;;;6.82;4.40;;;;;;;27.57;43.66;99614.38;5031508;28;20028;-76
2023/07/17 00:19:41;;;;;;;9.55;4.30;;;;;;;27.47;43.82;99610.50;5031552;28;20021;-76
2023/07/17 00:22:07;;;;;;;10.32;4.32;;;;;;;27.49;43.47;99612.91;5031415;28;20036;-76
2023/07/17 00:24:33;;;;;;;7.30;3.97;;;;;;;27.49;43.29;99617.84;5031396;28;20027;-76
2023/07/17 00:26:58;;;;;;;8.40;3.85;;;;;;;27.48;43.67;99622.78;5035229;28;20104;-76
2023/07/17 00:29:28;;;;;;;5.30;4.35;;;;;;;27.51;43.52;99621.88;5042922;28;20021;-76
2023/07/17 00:31:54;;;;;;;6.22;4.00;;;;;;;27.49;43.94;99624.38;5048027;28;20036;-76
2023/07/17 00:34:20;;;;;;;10.75;4.93;;;;;;;27.15;45.14;99629.31;5039968;28;20041;-76
2023/07/17 00:36:46;;;;;;;6.15;4.20;;;;;;;26.16;48.36;99629.69;5033895;28;20546;-76
2023/07/17 00:39:13;;;;;;;6.97;5.05;;;;;;;25.83;49.34;99632.38;5048240;28;20029;-76
2023/07/17 00:41:39;;;;;;;9.35;4.68;;;;;;;25.42;51.14;99628.50;5044743;28;20709;-76
2023/07/17 00:44:04;;;;;;;5.57;4.82;;;;;;;25.26;51.83;99614.88;5042979;28;20025;-76
2023/07/17 00:46:33;;;;;;;7.63;4.43;;;;;;;25.26;51.78;99620.59;5039766;28;20039;-76
2023/07/17 00:49:00;;;;;;;10.32;5.47;;;;;;;25.18;52.70;99622.75;5044048;28;20112;-76
2023/07/17 00:51:26;;;;;;;5.15;4.65;;;;;;;25.33;52.53;99631.91;5031085;28;20079;-77
2023/07/17 00:53:52;;;;;;;6.07;5.38;;;;;;;24.98;53.45;99622.66;5031302;28;20017;-76
2023/07/17 00:56:18;;;;;;;17.95;5.40;;;;;;;25.23;53.16;99621.47;5032128;28;20020;-76
2023/07/17 00:58:43;;;;;;;11.55;5.60;;;;;;;24.74;55.13;99619.69;5029772;28;20034;-76
2023/07/17 01:01:10;;;;;;;8.20;5.32;;;;;;;24.75;55.12;99617.59;5031142;28;20036;-77
2023/07/17 01:03:35;;;;;;;11.77;5.90;;;;;;;24.47;56.21;99617.56;5045855;28;20033;-76
2023/07/17 01:06:01;;;;;;;8.35;5.43;;;;;;;24.25;56.62;99617.84;5049176;28;20067;-76
2023/07/17 01:08:26;;;;;;;8.15;5.30;;;;;;;24.28;56.48;99632.50;5051853;28;20039;-76
2023/07/17 01:10:52;;;;;;;32.15;5.35;;;;;;;24.17;56.06;99627.72;5035123;28;20049;-76
2023/07/17 01:13:18;;;;;;;11.82;6.20;;;;;;;23.91;56.75;99620.59;5035005;28;20034;-76
2023/07/17 01:15:43;;;;;;;9.65;5.28;;;;;;;24.04;56.62;99624.56;5034951;28;20028;-76
2023/07/17 01:18:09;;;;;;;8.15;6.55;;;;;;;24.47;55.15;99614.69;5040539;28;20035;-76
2023/07/17 01:20:35;;;;;;;5.40;4.90;;;;;;;24.03;56.29;99617.22;5048046;28;20036;-76
2023/07/17 01:23:05;;;;;;;7.70;6.05;;;;;;;23.90;56.67;99614.09;5041609;28;20033;-76
2023/07/17 01:25:31;;;;;;;11.13;5.80;;;;;;;23.78;56.80;99618.28;5037970;28;20037;-76
2023/07/17 01:27:57;;;;;;;12.27;5.45;;;;;;;23.87;56.86;99611.25;5033406;28;20029;-76
2023/07/17 01:30:23;;;;;;;7.25;5.72;;;;;;;24.11;56.19;99613.06;5054128;28;20029;-76
2023/07/17 01:32:48;;;;;;;10.98;5.32;;;;;;;24.19;55.84;99612.97;5054542;28;20074;-76
2023/07/17 01:35:14;;;;;;;20.67;5.75;;;;;;;23.78;56.73;99612.56;5053171;28;20021;-76
2023/07/17 01:37:40;;;;;;;7.55;5.38;;;;;;;24.14;55.66;99622.03;5054337;28;20516;-76
2023/07/17 01:40:08;;;;;;;9.70;5.57;;;;;;;24.03;55.82;99617.22;5040007;28;20032;-76
2023/07/17 01:42:33;;;;;;;7.55;5.50;;;;;;;23.88;56.08;99612.88;5034403;28;20079;-77
2023/07/17 01:44:59;;;;;;;10.25;6.18;;;;;;;23.91;55.81;99609.19;5034301;28;20528;-76
2023/07/17 01:47:25;;;;;;;10.07;5.75;;;;;;;24.28;54.83;99612.50;5034293;28;20496;-76
2023/07/17 01:49:51;;;;;;;9.45;5.03;;;;;;;24.36;53.94;99625.44;5037814;28;20036;-76
2023/07/17 01:52:16;;;;;;;9.18;5.57;;;;;;;24.05;54.79;99609.03;5054205;28;20506;-76
2023/07/17 01:54:42;;;;;;;7.03;5.38;;;;;;;23.92;55.33;99617.31;5041455;28;20510;-76
2023/07/17 01:57:07;;;;;;;12.68;5.90;;;;;;;23.80;55.93;99615.00;5035445;28;20036;-76
2023/07/17 01:59:33;;;;;;;12.88;6.18;;;;;;;23.62;56.35;99620.88;5054054;28;20083;-76
2023/07/17 02:01:58;;;;;;;11.73;6.43;;;;;;;23.66;56.75;99627.34;5053920;28;20492;-76
2023/07/17 02:04:23;;;;;;;13.07;6.72;;;;;;;23.57;56.81;99630.69;5037283;28;20522;-76
2023/07/17 02:06:49;;;;;;;12.43;6.70;;;;;;;23.57;56.61;99625.00;5052563;28;20407;-76
2023/07/17 02:09:14;;;;;;;10.07;5.78;;;;;;;23.40;56.92;99621.06;5041326;28;20416;-76
2023/07/17 02:11:40;;;;;;;7.60;6.60;;;;;;;23.26;57.51;99617.06;5032661;28;20638;-76
2023/07/17 02:14:05;;;;;;;12.20;6.03;;;;;;;23.03;57.92;99620.44;5034294;28;20045;-76
2023/07/17 02:16:31;;;;;;;20.08;6.88;;;;;;;22.98;58.19;99618.06;5033816;28;20499;-76
2023/07/17 02:18:56;;;;;;;7.78;6.13;;;;;;;22.89;58.38;99614.84;5037685;28;20514;-76
2023/07/17 02:21:21;;;;;;;23.67;7.50;;;;;;;22.91;58.48;99613.22;5045328;28;20523;-76
2023/07/17 02:23:48;;;;;;;11.48;6.00;;;;;;;22.88;58.76;99618.94;5033739;28;20412;-76
2023/07/17 02:26:14;;;;;;;12.90;6.68;;;;;;;23.18;57.82;99615.47;5041351;28;20021;-77
2023/07/17 02:28:39;;;;;;;37.00;7.25;;;;;;;22.96;57.93;99614.81;5053536;28;20033;-76
2023/07/17 02:31:05;;;;;;;11.07;6.03;;;;;;;22.84;58.48;99624.63;5053537;28;20017;-76
2023/07/17 02:33:30;;;;;;;14.82;6.30;;;;;;;22.92;58.08;99614.00;5053387;28;20431;-76
2023/07/17 02:35:56;;;;;;;13.43;6.38;;;;;;;22.85;58.52;99614.84;5041644;28;20025;-76
2023/07/17 02:38:21;;;;;;;10.68;6.68;;;;;;;22.82;58.37;99612.84;5033859;28;20431;-76
2023/07/17 02:40:47;;;;;;;13.55;7.03;;;;;;;22.75;58.68;99612.91;5053315;28;20052;-76
2023/07/17 02:43:12;;;;;;;17.73;6.47;;;;;;;22.68;59.16;99619.44;5051711;28;20025;-76
2023/07/17 02:45:38;;;;;;;13.23;6.80;;;;;;;23.21;58.40;99622.38;5051718;28;20044;-76
2023/07/17 02:48:03;;;;;;;13.00;6.85;;;;;;;23.56;57.59;99620.53;5053172;28;20028;-76
2023/07/17 02:50:30;;;;;;;14.85;5.88;;;;;;;23.60;57.18;99629.84;5049799;28;20103;-78
2023/07/17 02:52:55;;;;;;;18.80;7.18;;;;;;;23.35;57.91;99625.16;5032546;28;20393;-80
2023/07/17 02:55:22;;;;;;;13.15;7.45;;;;;;;23.09;58.57;99617.97;5033113;28;20017;-76
2023/07/17 02:57:47;;;;;;;12.60;6.60;;;;;;;22.93;59.36;99624.22;5044531;28;20060;-76
2023/07/17 03:00:14;;;;;;;12.23;6.72;;;;;;;22.92;59.36;99631.13;5052871;28;20053;-74
2023/07/17 03:02:44;;;;;;;15.25;6.80;;;;;;;22.52;60.26;99632.13;5044852;28;20028;-75
2023/07/17 03:05:10;;;;;;;8.05;6.25;;;;;;;22.41;60.67;99637.84;5036526;28;20030;-75
2023/07/17 03:07:49;;;;;;;14.35;7.20;;;;;;;22.13;61.62;99633.84;5040060;28;20033;-74
2023/07/17 03:10:14;;;;;;;15.38;7.55;;;;;;;22.22;61.83;99635.44;5052732;28;20054;-75
2023/07/17 03:12:40;;;;;;;11.20;7.38;;;;;;;22.46;60.50;99619.50;5052533;28;20025;-76
2023/07/17 03:15:06;;;;;;;16.58;7.65;;;;;;;22.45;60.80;99632.13;5033531;28;20025;-76
2023/07/17 03:17:32;;;;;;;9.13;6.65;;;;;;;22.28;61.01;99634.63;5031849;28;20488;-75
2023/07/17 03:19:58;;;;;;;10.30;7.95;;;;;;;22.11;61.77;99639.13;5031277;28;20132;-75
2023/07/17 03:22:24;;;;;;;12.98;8.32;;;;;;;21.94;62.79;99648.53;5033092;28;20079;-76
2023/07/17 03:24:49;;;;;;;12.38;7.55;;;;;;;22.07;62.99;99646.06;5031362;28;20025;-74
2023/07/17 03:27:15;;;;;;;16.92;7.10;;;;;;;21.76;64.28;99643.66;5032510;28;20037;-73
2023/07/17 03:29:41;;;;;;;7.50;6.80;;;;;;;21.57;65.02;99644.84;5031481;28;20025;-73
2023/07/17 03:32:07;;;;;;;9.75;7.53;;;;;;;21.74;64.52;99641.25;5033357;28;20060;-73
2023/07/17 03:34:32;;;;;;;11.52;7.63;;;;;;;21.74;64.51;99652.63;5044670;28;20028;-73
2023/07/17 03:36:58;;;;;;;10.93;7.15;;;;;;;21.82;63.89;99647.75;5050178;28;20029;-73
2023/07/17 03:39:23;;;;;;;13.63;7.18;;;;;;;21.62;64.24;99658.69;5043512;28;20083;-73
2023/07/17 03:41:49;;;;;;;13.48;7.53;;;;;;;21.55;64.90;99664.38;5031876;28;20124;-73
2023/07/17 03:44:14;;;;;;;9.45;7.22;;;;;;;21.45;65.61;99663.97;5031827;28;20026;-73
2023/07/17 03:46:40;;;;;;;12.02;7.03;;;;;;;21.48;65.67;99665.19;5031736;28;20577;-73
2023/07/17 03:49:05;;;;;;;18.30;8.30;;;;;;;21.28;66.67;99664.75;5051120;28;20479;-73
2023/07/17 03:51:31;;;;;;;19.20;9.20;;;;;;;21.53;66.46;99669.66;5051972;28;20506;-73
2023/07/17 03:53:56;;;;;;;12.63;7.78;;;;;;;21.44;67.07;99668.03;5040492;28;20040;-73
2023/07/17 03:56:22;;;;;;;14.68;8.05;;;;;;;21.32;68.08;99674.09;5034965;28;20036;-73
2023/07/17 03:58:47;;;;;;;16.80;8.80;;;;;;;21.30;68.90;99670.84;5033771;28;20037;-73
2023/07/17 04:01:13;;;;;;;15.30;8.50;;;;;;;21.29;69.48;99672.06;5031735;28;20036;-73
2023/07/17 04:03:39;;;;;;;26.17;10.35;;;;;;;21.38;69.45;99669.66;5038156;28;20435;-73
2023/07/17 04:06:04;;;;;;;16.25;9.52;;;;;;;21.38;69.23;99666.81;5051521;28;20492;-73
2023/07/17 04:08:30;;;;;;;15.23;8.93;;;;;;;21.40;69.46;99672.09;5050405;28;20418;-73
2023/07/17 04:10:55;;;;;;;14.63;8.98;;;;;;;21.50;69.14;99665.59;5042797;28;20534;-73
2023/07/17 04:13:20;;;;;;;19.15;8.75;;;;;;;21.71;68.46;99675.41;5044629;28;20037;-73
2023/07/17 04:15:46;;;;;;;25.30;8.98;;;;;;;21.77;68.20;99678.66;5051513;28;20021;-73
2023/07/17 04:18:11;;;;;;;21.20;9.02;;;;;;;21.88;67.92;99662.38;5051215;28;20108;-73
2023/07/17 04:20:39;;;;;;;16.65;8.75;;;;;;;22.02;67.58;99673.75;5051370;28;20028;-73
2023/07/17 04:23:05;;;;;;;11.98;8.85;;;;;;;22.05;67.49;99677.00;5042297;28;20056;-73
2023/07/17 04:25:31;;;;;;;16.13;9.60;;;;;;;22.13;67.37;99684.31;5051327;28;20052;-73
2023/07/17 04:27:56;;;;;;;13.75;9.88;;;;;;;22.29;66.92;99684.66;5042680;28;20438;-73
2023/07/17 04:30:22;;;;;;;13.57;9.18;;;;;;;22.36;66.75;99674.50;5051281;28;20032;-73
2023/07/17 04:32:47;;;;;;;15.73;9.63;;;;;;;22.76;65.30;99686.59;5051355;28;20099;-73
2023/07/17 04:35:13;;;;;;;16.33;9.77;;;;;;;22.63;65.17;99685.44;5044927;28;20022;-73
2023/07/17 04:37:40;;;;;;;19.95;11.10;;;;;;;22.71;64.94;99684.97;5031373;28;20029;-73
2023/07/17 04:40:06;;;;;;;12.55;9.52;;;;;;;22.83;64.08;99680.88;5031758;28;20504;-73
2023/07/17 04:42:32;;;;;;;16.92;10.18;;;;;;;23.14;62.55;99689.66;5034973;28;20542;-73
2023/07/17 04:44:57;;;;;;;12.75;9.95;;;;;;;23.30;62.17;99693.28;5033632;28;20077;-73
2023/07/17 04:47:22;;;;;;;14.90;8.73;;;;;;;23.39;61.96;99683.00;5045767;28;20032;-73
2023/07/17 04:49:53;;;;;;;18.38;9.18;;;;;;;23.52;61.28;99702.50;5051089;28;20024;-73
2023/07/17 04:52:18;;;;;;;11.50;9.35;;;;;;;23.46;60.72;99687.84;5048890;28;20499;-73
2023/07/17 04:54:44;;;;;;;16.15;8.30;;;;;;;23.53;60.79;99693.53;5045493;28;20040;-73
2023/07/17 04:57:09;;;;;;;16.75;9.38;;;;;;;23.69;59.99;99690.13;5034890;28;20025;-77
2023/07/17 04:59:35;;;;;;;31.42;10.50;;;;;;;24.05;58.57;99699.66;5031122;28;20030;-73
2023/07/17 05:02:00;;;;;;;23.20;9.52;;;;;;;24.23;58.62;99694.56;5031862;28;20030;-74
2023/07/17 05:04:25;;;;;;;10.10;9.10;;;;;;;24.43;57.28;99690.28;5030848;28;20029;-74
2023/07/17 05:06:51;;;;;;;13.00;9.13;;;;;;;24.74;56.21;99688.31;5039007;28;20017;-74
2023/07/17 05:09:16;;;;;;;13.57;8.30;;;;;;;25.06;55.04;99694.88;5048465;28;20029;-74
2023/07/17 05:11:42;;;;;;;10.20;8.02;;;;;;;24.91;56.23;99691.38;5038172;28;20037;-74
2023/07/17 05:14:08;;;;;;;15.80;9.15;;;;;;;25.06;54.61;99683.44;5031644;28;20041;-75
2023/07/17 05:16:33;;;;;;;17.13;8.48;;;;;;;25.18;54.48;99688.56;5037623;28;20395;-75
2023/07/17 05:18:59;;;;;;;49.58;10.00;;;;;;;25.26;53.10;99683.56;5041921;28;20523;-74
2023/07/17 05:21:24;;;;;;;13.00;7.63;;;;;;;25.33;50.78;99694.09;5030811;28;20408;-75
2023/07/17 05:23:50;;;;;;;14.65;8.23;;;;;;;25.28;51.65;99692.50;5036881;28;20083;-74
2023/07/17 05:26:15;;;;;;;9.77;7.63;;;;;;;25.31;51.95;99685.91;5029706;28;20021;-75
2023/07/17 05:28:41;;;;;;;14.45;7.70;;;;;;;25.51;51.59;99683.19;5031752;28;20033;-74
2023/07/17 05:31:06;;;;;;;12.43;6.85;;;;;;;25.63;50.27;99693.22;5034078;28;20060;-76
2023/07/17 05:33:31;;;;;;;9.82;7.68;;;;;;;25.57;50.35;99694.16;5040391;28;20701;-77
2023/07/17 05:35:57;;;;;;;9.73;7.15;;;;;;;25.94;50.90;99689.44;5046150;28;20028;-75
2023/07/17 05:38:22;;;;;;;12.95;7.43;;;;;;;26.13;49.16;99690.75;5037368;28;20037;-74
2023/07/17 05:40:48;;;;;;;10.50;7.65;;;;;;;26.36;49.33;99689.13;5038205;28;20036;-75
2023/07/17 05:43:13;;;;;;;11.43;7.28;;;;;;;26.12;47.90;99692.00;5036423;28;20104;-74
2023/07/17 05:45:39;;;;;;;9.57;7.05;;;;;;;26.23;48.11;99691.03;5034159;28;20107;-75
2023/07/17 05:48:04;;;;;;;10.07;6.22;;;;;;;26.24;47.18;99686.91;5030316;28;20021;-73
2023/07/17 05:50:30;;;;;;;13.95;7.50;;;;;;;26.19;47.66;99691.09;5036902;28;20037;-75
2023/07/17 05:52:55;;;;;;;8.77;6.30;;;;;;;26.08;47.53;99692.06;5040498;28;20032;-75
2023/07/17 05:55:21;;;;;;;14.13;7.05;;;;;;;26.59;46.38;99691.13;5048012;28;20025;-73
2023/07/17 05:57:46;;;;;;;8.93;7.03;;;;;;;26.72;44.70;99687.59;5049362;28;20029;-74
2023/07/17 06:00:15;;;;;;;7.50;6.00;;;;;;;26.62;45.34;99689.44;5048196;28;20570;-75
2023/07/17 06:02:44;;;;;;;11.27;6.50;;;;;;;26.27;43.46;99683.16;5037224;28;20609;-74
2023/07/17 06:05:10;;;;;;;14.55;6.25;;;;;;;26.81;43.36;99690.69;5038679;28;20043;-73
2023/07/17 06:07:36;;;;;;;16.13;6.45;;;;;;;26.85;42.63;99688.56;5035773;28;20035;-73
2023/07/17 06:10:02;;;;;;;6.38;5.07;;;;;;;27.10;42.69;99695.03;5030666;28;23881;-73
2023/07/17 06:12:27;;;;;;;14.23;5.90;;;;;;;27.35;42.05;99690.78;5034776;28;20067;-74
2023/07/17 06:14:52;;;;;;;11.15;5.10;;;;;;;27.30;42.26;99686.38;5030443;28;20044;-73
2023/07/17 06:17:18;;;;;;;7.28;5.50;;;;;;;27.35;42.50;99680.13;5036809;28;20565;-73
2023/07/17 06:19:43;;;;;;;11.23;5.95;;;;;;;27.60;42.67;99676.66;5035252;28;20034;-73
2023/07/17 06:22:09;;;;;;;11.88;5.95;;;;;;;27.54;41.36;99678.47;5046346;28;20502;-74
2023/07/17 06:24:35;;;;;;;7.07;5.80;;;;;;;27.96;40.82;99666.34;5040361;28;20504;-73
2023/07/17 06:27:00;;;;;;;8.15;5.35;;;;;;;27.52;40.53;99683.00;5028960;28;20040;-75
2023/07/17 06:29:26;;;;;;;11.88;5.10;;;;;;;28.07;39.73;99682.50;5030078;28;20040;-78
2023/07/17 06:31:52;;;;;;;5.60;5.03;;;;;;;28.16;38.85;99676.88;5036035;28;20555;-76
2023/07/17 06:34:18;;;;;;;10.75;5.35;;;;;;;28.15;38.41;99673.22;5030746;28;20513;-76
2023/07/17 06:36:44;;;;;;;6.60;4.97;;;;;;;28.13;38.28;99670.00;5028892;28;20018;-77
2023/07/17 06:39:10;;;;;;;8.00;5.38;;;;;;;28.53;37.26;99668.09;5036553;28;20044;-75
2023/07/17 06:41:36;;;;;;;9.48;4.95;;;;;;;28.83;36.67;99663.97;5034896;28;20037;-77
2023/07/17 06:44:01;;;;;;;9.88;4.60;;;;;;;28.95;36.27;99664.44;5029119;28;20071;-76
2023/07/17 06:46:26;;;;;;;9.07;5.57;;;;;;;28.91;36.51;99663.75;5029553;28;20056;-77
2023/07/17 06:48:52;;;;;;;9.45;4.32;;;;;;;28.72;36.20;99655.63;5031597;28;20037;-78
2023/07/17 06:51:21;;;;;;;9.57;4.82;;;;;;;29.25;36.52;99640.06;5030360;28;20033;-80
2023/07/17 06:53:49;;;;;;;13.02;4.45;;;;;;;29.49;35.51;99647.56;5031837;28;20047;-79
2023/07/17 06:56:14;;;;;;;8.45;4.93;;;;;;;29.41;34.23;99642.00;5042516;28;20029;-75
2023/07/17 06:58:40;;;;;;;8.95;4.72;;;;;;;29.42;33.76;99646.50;5027601;28;20106;-77
2023/07/17 07:01:05;;;;;;;11.38;7.25;;;;;;;29.68;34.65;99646.50;5040595;28;20087;-76
2023/07/17 07:03:31;;;;;;;8.52;5.13;;;;;;;30.08;34.13;99653.00;5043538;28;20030;-82
2023/07/17 07:05:59;;;;;;;10.10;4.47;;;;;;;30.33;33.54;99640.56;5029247;28;20129;-77
2023/07/17 07:08:26;;;;;;;9.65;4.30;;;;;;;30.45;32.67;99641.78;5032426;28;20484;-78
2023/07/17 07:10:56;;;;;;;7.43;5.10;;;;;;;29.87;33.89;99643.81;5032600;28;20033;-77
2023/07/17 07:13:23;;;;;;;7.32;4.47;;;;;;;30.37;33.65;99637.56;5038708;28;20064;-81
2023/07/17 07:15:50;;;;;;;9.63;5.32;;;;;;;30.75;32.47;99641.53;5024307;28;20393;-81
2023/07/17 07:18:16;;;;;;;8.25;4.30;;;;;;;30.88;32.13;99647.22;5033644;28;20071;-84
2023/07/17 07:20:42;;;;;;;4.95;4.03;;;;;;;30.80;32.01;99620.72;5041296;28;20034;-79
2023/07/17 07:23:07;;;;;;;9.20;4.78;;;;;;;31.00;34.10;99633.97;5043788;28;20033;-76
2023/07/17 07:25:33;;;;;;;10.73;4.70;;;;;;;31.21;32.20;99632.31;5046577;28;20136;-77
2023/07/17 07:28:00;;;;;;;17.85;5.60;;;;;;;31.44;33.03;99616.53;5041769;28;20038;-77
2023/07/17 07:30:26;;;;;;;12.65;4.82;;;;;;;31.42;33.38;99619.09;5033121;28;20108;-79
2023/07/17 07:32:52;;;;;;;5.90;5.10;;;;;;;31.38;31.35;99621.34;5045858;28;20056;-74
2023/07/17 07:35:18;;;;;;;5.28;3.95;;;;;;;31.57;32.50;99619.31;5049330;28;20063;-80
2023/07/17 07:37:43;;;;;;;15.95;4.97;;;;;;;31.28;32.26;99613.91;5046434;28;20041;-83
2023/07/17 07:40:12;;;;;;;6.35;4.95;;;;;;;31.65;32.95;99620.59;5049088;28;20097;-77
2023/07/17 07:42:42;;;;;;;9.63;4.82;;;;;;;31.78;32.03;99614.69;5036580;28;20048;-75
2023/07/17 07:45:08;;;;;;;8.70;4.25;;;;;;;31.92;31.96;99618.25;5033822;28;20053;-76
2023/07/17 07:47:34;;;;;;;11.27;4.47;;;;;;;32.13;31.50;99618.59;5033618;28;20438;-73
2023/07/17 07:50:00;;;;;;;8.13;4.00;;;;;;;31.60;30.67;99617.53;5035596;28;20036;-75
2023/07/17 07:52:25;;;;;;;13.77;4.22;;;;;;;31.55;32.17;99607.41;5039197;28;20044;-75
2023/07/17 07:54:51;;;;;;;8.30;4.22;;;;;;;31.94;31.09;99598.34;5037544;28;20029;-75
2023/07/17 07:57:16;;;;;;;11.10;4.00;;;;;;;32.21;29.80;99603.31;5049349;28;20013;-75
2023/07/17 07:59:42;;;;;;;9.15;4.75;;;;;;;31.69;30.48;99597.31;5034223;28;20052;-75
2023/07/17 08:02:09;;;;;;;9.73;4.07;;;;;;;31.59;30.32;99598.56;5030390;28;20017;-75
2023/07/17 08:04:35;;;;;;;6.40;4.63;;;;;;;31.84;29.79;99599.59;5030974;28;20025;-74
2023/07/17 08:07:00;;;;;;;6.32;4.15;;;;;;;32.33;31.25;99592.06;5030615;28;20029;-78
2023/07/17 08:09:25;;;;;;;5.65;4.07;;;;;;;32.39;29.54;99607.50;5038873;28;20491;-76
2023/07/17 08:11:52;;;;;;;7.35;4.10;;;;;;;32.05;29.40;99592.88;5037538;28;20037;-74
2023/07/17 08:14:20;;;;;;;14.25;4.35;;;;;;;32.28;29.41;99610.06;5031751;28;20021;-75
2023/07/17 08:16:47;;;;;;;9.05;4.85;;;;;;;32.52;29.36;99598.66;5039143;28;20099;-77
2023/07/17 08:19:12;;;;;;;8.52;4.63;;;;;;;32.40;29.23;99596.75;5029165;28;20025;-75
2023/07/17 08:21:38;;;;;;;8.68;5.72;;;;;;;32.73;31.01;99591.03;5029029;28;20052;-77
2023/07/17 08:24:03;;;;;;;17.45;5.35;;;;;;;32.77;29.14;99590.88;5032282;28;20440;-73
2023/07/17 08:26:29;;;;;;;5.68;4.20;;;;;;;33.10;30.00;99589.34;5035675;28;20028;-74
2023/07/17 08:28:55;;;;;;;5.20;4.70;;;;;;;33.20;29.02;99582.19;5041800;28;20538;-78
2023/07/17 08:31:20;;;;;;;4.68;4.22;;;;;;;33.15;30.01;99580.00;5049347;28;20080;-78
2023/07/17 08:33:46;;;;;;;9.27;4.95;;;;;;;33.30;29.49;99586.66;5039912;28;20474;-78
2023/07/17 08:36:11;;;;;;;7.05;5.28;;;;;;;33.69;28.91;99579.38;5047291;28;20068;-78
2023/07/17 08:38:37;;;;;;;7.88;4.80;;;;;;;33.52;27.99;99579.00;5058164;28;20044;-78
2023/07/17 08:41:03;;;;;;;7.28;4.60;;;;;;;33.67;30.32;99576.97;5034564;28;20036;-78
2023/07/17 08:43:29;;;;;;;10.95;5.50;;;;;;;32.99;28.57;99578.28;5040637;28;20029;-79
2023/07/17 08:45:56;;;;;;;8.45;6.50;;;;;;;33.05;28.94;99565.53;5050769;28;20047;-78
2023/07/17 08:48:22;;;;;;;7.28;4.57;;;;;;;32.93;29.07;99569.47;5048392;28;20060;-77
2023/07/17 08:50:51;;;;;;;10.52;5.85;;;;;;;32.65;29.42;99562.94;5038246;28;20755;-77
2023/07/17 08:53:18;;;;;;;9.47;5.10;;;;;;;32.17;29.86;99555.59;5029904;28;20037;-78
2023/07/17 08:55:46;;;;;;;5.53;4.47;;;;;;;33.10;28.91;99563.25;5030721;28;20408;-80
2023/07/17 08:58:11;;;;;;;12.27;4.70;;;;;;;33.48;29.60;99558.88;5030549;28;20033;-79
2023/07/17 09:00:39;;;;;;;9.13;4.68;;;;;;;33.84;29.61;99556.22;5035386;28;20044;-77
2023/07/17 09:03:04;;;;;;;5.70;4.68;;;;;;;34.12;28.98;99562.63;5046925;28;20028;-77
2023/07/17 09:05:29;;;;;;;8.07;5.10;;;;;;;34.27;28.61;99559.75;5030101;28;20480;-79
2023/07/17 09:07:55;;;;;;;7.55;5.18;;;;;;;34.15;28.08;99552.09;5030800;28;20495;-76
2023/07/17 09:10:22;;;;;;;15.32;4.93;;;;;;;34.33;27.83;99561.94;5035900;28;20131;-78
2023/07/17 09:12:49;;;;;;;8.60;4.40;;;;;;;34.47;27.19;99558.25;5035961;28;20542;-78
2023/07/17 09:15:15;;;;;;;8.95;4.82;;;;;;;34.62;27.45;99549.56;5030708;28;20039;-77
2023/07/17 09:17:41;;;;;;;7.45;5.22;;;;;;;34.72;27.71;99547.34;5030574;28;20033;-78
2023/07/17 09:20:11;;;;;;;11.35;5.47;;;;;;;34.56;27.88;99548.66;5030850;28;20492;-77
2023/07/17 09:22:40;;;;;;;7.80;5.30;;;;;;;34.75;27.63;99546.34;5023930;28;20036;-75
2023/07/17 09:25:07;;;;;;;7.57;4.65;;;;;;;34.75;27.64;99546.34;5031636;28;20067;-74
2023/07/17 09:27:50;;;;;;;5.88;5.28;;;;;;;35.18;28.31;99545.19;5028675;28;20158;-77
2023/07/17 09:30:24;;;;;;;11.27;5.35;;;;;;;35.31;27.94;99541.94;5051427;28;20032;-79
2023/07/17 09:32:50;;;;;;;5.40;4.88;;;;;;;35.61;26.24;99531.03;5035208;28;20195;-73
2023/07/17 09:35:23;;;;;;;12.07;5.30;;;;;;;35.83;26.00;99532.59;5033932;28;20036;-73
2023/07/17 09:37:49;;;;;;;12.32;5.75;;;;;;;35.87;26.20;99530.28;5042912;28;20060;-73
2023/07/17 09:40:18;;;;;;;8.55;5.60;;;;;;;35.03;27.62;99525.69;5043826;28;20041;-77
2023/07/17 09:42:55;;;;;;;11.27;5.18;;;;;;;35.48;27.40;99510.19;5035734;28;20100;-81
2023/07/17 09:45:22;;;;;;;10.75;5.30;;;;;;;35.43;28.07;99508.81;5036072;28;20060;-75
2023/07/17 09:47:51;;;;;;;13.60;6.07;;;;;;;36.00;26.93;99518.22;5045198;28;20040;-73
2023/07/17 09:50:22;;;;;;;10.00;6.20;;;;;;;36.38;26.64;99509.66;5037346;28;20471;-80
2023/07/17 09:52:49;;;;;;;6.25;5.65;;;;;;;36.71;27.02;99514.22;5036105;28;20044;-81
2023/07/17 09:55:15;;;;;;;11.65;5.32;;;;;;;36.52;27.33;99505.81;5031845;28;20037;-77
2023/07/17 09:57:42;;;;;;;9.27;5.65;;;;;;;36.50;27.30;99499.72;5032021;28;20064;-83
2023/07/17 10:00:12;;;;;;;7.47;6.32;;;;;;;36.28;27.14;99503.22;5030354;28;20522;-84
2023/07/17 10:03:03;;;;;;;8.20;5.82;;;;;;;36.40;26.95;99501.19;5030120;28;20066;-83
2023/07/17 10:05:31;;;;;;;8.52;5.68;;;;;;;36.59;26.56;99506.69;5039132;28;20484;-81
2023/07/17 10:07:58;;;;;;;10.73;5.78;;;;;;;37.03;25.84;99495.88;5043025;28;20033;-82
2023/07/17 10:10:24;;;;;;;9.43;6.53;;;;;;;36.95;25.94;99493.44;5053738;28;20431;-81
2023/07/17 10:12:50;;;;;;;11.23;6.75;;;;;;;37.01;26.54;99496.41;5045826;28;20033;-82
2023/07/17 10:15:16;;;;;;;10.63;6.55;;;;;;;37.00;26.59;99482.38;5032472;28;20026;-80
2023/07/17 10:17:42;;;;;;;8.43;5.85;;;;;;;37.34;26.45;99488.38;5032506;28;20135;-81
2023/07/17 10:20:12;;;;;;;11.38;6.88;;;;;;;37.33;26.48;99478.03;5032344;28;20029;-81
2023/07/17 10:22:44;;;;;;;6.60;5.50;;;;;;;37.14;26.75;99469.75;5040224;28;20495;-81
2023/07/17 10:25:19;;;;;;;5.93;5.20;;;;;;;37.00;27.00;99473.63;5041498;28;20067;-78
2023/07/17 10:28:01;;;;;;;8.48;6.05;;;;;;;37.20;26.63;99472.69;5041394;28;20028;-81
2023/07/17 10:30:35;;;;;;;10.00;6.35;;;;;;;37.43;27.26;99459.00;5042429;28;20025;-82
2023/07/17 10:33:04;;;;;;;8.75;6.43;;;;;;;37.68;26.66;99464.44;5042788;28;20039;-83
2023/07/17 10:35:50;;;;;;;8.90;5.93;;;;;;;37.59;26.11;99463.34;5042767;28;20025;-83
2023/07/17 10:38:18;;;;;;;9.52;6.10;;;;;;;37.85;25.69;99450.69;5044180;28;20021;-83
2023/07/17 10:40:44;;;;;;;9.52;6.60;;;;;;;38.14;25.24;99453.66;5035114;28;20056;-83
2023/07/17 10:43:18;;;;;;;11.75;7.13;;;;;;;38.21;24.93;99447.31;5032194;28;20420;-83
2023/07/17 10:45:46;;;;;;;13.45;6.68;;;;;;;38.41;26.71;99455.00;5031927;28;20046;-86
2023/07/17 10:48:12;;;;;;;16.23;7.18;;;;;;;38.76;26.04;99444.09;5032441;28;20029;-85
2023/07/17 10:50:39;;;;;;;11.88;7.18;;;;;;;38.72;25.96;99450.22;5035537;28;20404;-86
2023/07/17 10:53:05;;;;;;;7.70;6.90;;;;;;;39.07;25.61;99445.13;5034023;28;20029;-85
2023/07/17 10:55:32;;;;;;;8.23;7.22;;;;;;;38.76;25.54;99447.03;5032431;28;20115;-86
2023/07/17 10:57:59;;;;;;;9.90;7.25;;;;;;;38.41;25.90;99422.91;5021781;28;20029;-87
2023/07/17 11:00:25;;;;;;;9.88;7.45;;;;;;;38.90;25.76;99448.06;5053100;28;20151;-87
2023/07/17 11:02:51;;;;;;;12.35;9.05;;;;;;;39.15;26.09;99437.38;5053152;28;20041;-86
2023/07/17 11:05:16;;;;;;;12.38;8.18;;;;;;;39.11;25.95;99433.94;5051779;28;20503;-87
2023/07/17 11:07:42;;;;;;;10.30;8.50;;;;;;;38.62;26.06;99434.31;5051857;28;20036;-87
2023/07/17 11:10:12;;;;;;;9.52;7.75;;;;;;;38.98;25.37;99428.69;5051701;28;20037;-87
2023/07/17 11:12:38;;;;;;;8.50;7.70;;;;;;;38.97;24.86;99432.91;5051593;28;20047;-87
2023/07/17 11:15:13;;;;;;;8.13;7.32;;;;;;;39.41;24.26;99426.69;5042630;28;20091;-87
2023/07/17 11:17:39;;;;;;;8.13;7.32;;;;;;;39.01;24.67;99420.97;5031619;28;20116;-87
2023/07/17 11:20:05;;;;;;;12.68;7.50;;;;;;;38.24;25.90;99425.00;5031769;28;20021;-87
2023/07/17 11:22:31;;;;;;;9.75;7.50;;;;;;;38.41;25.93;99422.91;5032953;28;20119;-87
2023/07/17 11:24:56;;;;;;;13.57;8.85;;;;;;;38.05;25.99;99416.78;5033079;28;20036;-88